Impacts METAR Board INFO
IDs:

KSEA - Seattle-Tacoma Intl, WA, US

Updated at: 0810 UTC 15 Dec 2017
Potential Impact None Slight Moderate High
Time14/20Z 14/21Z 14/22Z 14/23Z 15/00Z 15/01Z 15/02Z 15/03Z 15/04Z 15/05Z 15/06Z 15/07Z 15/08Z
VIS10 10 10 10 10 10 10 10 8 7 8 10 10
CIG230 230 230 250 250 250 250 250 250 -- -- -- 250
CoverBKNBKNBKNBKNBKNBKNBKNBKNBKNSCTSCTFEWBKN
FltCatVFRVFRVFRVFRVFRVFRVFRVFRVFRVFRVFRVFRVFR
WX--------------------------
WDir027003202800310140160180160130140
WSpd3 3 0 4 5 0 4 7 3 4 3 7 5
WGst-- -- -- -- -- -- -- -- -- -- -- -- --
Raw hourly METARs
KSEA 141953Z VRB03KT 10SM SCT120 BKN230 09/02 A3031 RMK AO2 SLP271 T00890022
KSEA 142053Z 27003KT 10SM SCT120 BKN230 09/03 A3029 RMK AO2 SLP267 T00890028 56016
KSEA 142153Z 00000KT 10SM FEW120 BKN230 09/03 A3027 RMK AO2 SLP258 T00890033
KSEA 142253Z 32004KT 10SM FEW140 BKN250 10/02 A3026 RMK AO2 SLP256 T01000017
KSEA 142353Z 28005KT 10SM FEW180 BKN250 08/02 A3026 RMK AO2 SLP257 T00780022 10100 20050 55010
KSEA 150053Z 00000KT 10SM FEW180 BKN250 07/02 A3027 RMK AO2 SLP259 T00670017
KSEA 150153Z 31004KT 10SM BKN250 06/02 A3027 RMK AO2 SLP259 T00560022
KSEA 150253Z 14007KT 10SM BKN250 06/03 A3025 RMK AO2 SLP253 T00560028 58005
KSEA 150353Z 16003KT 8SM BKN250 04/03 A3023 RMK AO2 SLP247 T00440033 $
KSEA 150453Z 18004KT 7SM SCT250 04/03 A3023 RMK AO2 SLP247 T00390028 $
KSEA 150553Z 16003KT 8SM SCT250 04/03 A3024 RMK AO2 SLP247 T00440028 10083 20033 55004 $
KSEA 150653Z 13007KT 10SM FEW250 04/02 A3024 RMK AO2 SLP248 T00390022 $
KSEA 150753Z 14005KT 10SM BKN250 04/02 A3023 RMK AO2 SLP247 T00390017 401000022 $